Погода Ростусана 2 недели

Скопье, Македония

19 июля-01 августа
  • 19июля
    Сегодня
    +20°
    +40°
    Ясно и безоблачно
    ВремяПогодаТемператураВлажностьДавлениеВетер, м/сВероятность осадков
    02:00Ясно и безоблачно+23°C65 %740 мм0.8 м/с2 %
    05:00Ясно и безоблачно+21°C72 %740 мм0.5 м/с2 %
    08:00Ясно и безоблачно+28°C50 %741 мм0.0 м/с2 %
    11:00Ясно и безоблачно+34°C36 %740 мм1.0 м/с2 %
    14:00Ясно и безоблачно+39°C25 %739 мм1.9 м/с2 %
    17:00Облачно с прояснениями, ливень+37°C47 %739 мм3.8 м/с13 %
    20:00Практически безоблачно+32°C48 %738 мм2.1 м/с2 %
    23:00Ясно и безоблачно+27°C63 %738 мм1.2 м/с2 %
  • 20июля
    Суббота
    +20°
    +39°
    Ясно и безоблачно
    ВремяПогодаТемператураВлажностьДавлениеВетер, м/сВероятность осадков
    02:00Ясно и безоблачно+23°C69 %737 мм0.5 м/с2 %
    05:00Ясно и безоблачно+21°C66 %737 мм0.3 м/с2 %
    08:00Ясно и безоблачно+27°C48 %737 мм0.0 м/с2 %
    11:00Ясно и безоблачно+34°C33 %737 мм1.3 м/с2 %
    14:00Ясно и безоблачно+39°C29 %736 мм1.9 м/с2 %
    17:00Практически безоблачно+36°C29 %734 мм2.4 м/с11 %
    20:00Практически безоблачно+33°C39 %735 мм1.4 м/с11 %
    23:00Ясно и безоблачно+26°C51 %735 мм0.6 м/с3 %
  • 21июля
    Воскресенье
    +23°
    +40°
    Ясно и безоблачно
    ВремяПогодаТемператураВлажностьДавлениеВетер, м/сВероятность осадков
    02:00Ясно и безоблачно+22°C52 %734 мм0.7 м/с2 %
    05:00Ясно и безоблачно+20°C52 %734 мм0.0 м/с2 %
    08:00Ясно и безоблачно+27°C48 %735 мм0.0 м/с2 %
    11:00Ясно и безоблачно+34°C31 %735 мм1.4 м/с2 %
    14:00Ясно и безоблачно+39°C22 %734 мм2.5 м/с4 %
    17:00Ясно и безоблачно+37°C20 %733 мм2.6 м/с3 %
    20:00Ясно и безоблачно+33°C33 %734 мм3.7 м/с2 %
    23:00Ясно и безоблачно+27°C41 %735 мм1.6 м/с2 %
  • 22июля
    Понедельник
    +18°
    +40°
    Небольшая облачность
    ВремяПогодаТемператураВлажностьДавлениеВетер, м/сВероятность осадков
    02:00Ясно и безоблачно+26°C61 %735 мм1.0 м/с2 %
    05:00Ясно и безоблачно+24°C65 %735 мм0.2 м/с2 %
    08:00Ясно и безоблачно+29°C44 %736 мм0.1 м/с2 %
    11:00Ясно и безоблачно+33°C37 %735 мм0.8 м/с2 %
    14:00Небольшая облачность+39°C30 %735 мм2.4 м/с16 %
    17:00Небольшая облачность, возможен дождь с грозой+36°C38 %736 мм4.1 м/с19 %
    20:00Ясно и безоблачно+28°C40 %736 мм3.4 м/с6 %
    23:00Ясно и безоблачно+25°C52 %737 мм2.1 м/с2 %
  • 23июля
    Вторник
    +20°
    +37°
    Небольшая облачность
    ВремяПогодаТемператураВлажностьДавлениеВетер, м/сВероятность осадков
    02:00Ясно и безоблачно+19°C69 %736 мм1.8 м/с2 %
    05:00Ясно и безоблачно+19°C72 %737 мм0.9 м/с2 %
    08:00Ясно и безоблачно+24°C58 %738 мм2.0 м/с4 %
    11:00Ясно и безоблачно+31°C44 %738 мм2.0 м/с18 %
    14:00Небольшая облачность+37°C35 %737 мм3.1 м/с24 %
    17:00Практически безоблачно+36°C38 %736 мм5.0 м/с26 %
    20:00Практически безоблачно+31°C47 %737 мм4.0 м/с10 %
    23:00Ясно и безоблачно+26°C60 %738 мм1.6 м/с2 %
Мы используем cookies
Соглашаюсь